Estació municipal de St. Julià de Vilatorta (Osona, E.N.Guilleries-Savassona)

Consulta les dades en temps real de l'estació municipal de St. Julià de Vilatorta





Hora UTC 09:45
Temperatura 27.4 ºC
Subsòl 10 cm 32.5 ºC
Humitat 47.3 %
Pressió 1022.8 hPa
Pluja 0.0 mm
Velocitat vent 3.2 km/h
Direcció vent WNW
Radiació solar 701.2 W/m²
Fuel 7.6 %

Webcam

Dades diàries 2026-09-03



Hora UTC (hivern +1h; estiu +2h)
Temperatura (ºC) Humitat (%) Pressió (hPa) Velocitat vent (km/h) Precipitació (mm) Fuel (%) Radiació solar (W/m²)
Hora UTC Aire Subsòl 10 cm Humitat Pressió Vel. Dir. Vel. Max Dir. Intent. màx 5 min. Fuel Rad. Sol.
00:05 17.7 13.9 83.5 1022.6 1.7 SSE 1.7 SSE 0.0 7.8 0.3
00:10 17.5 13.9 84.1 1022.6 2.4 SSE 3.6 SSE 0.0 7.8 0.3
00:15 17.4 14.1 84.9 1022.6 2.5 SE 4.4 SSE 0.0 7.7 0.6
00:20 17.4 14.0 85.3 1022.6 2.3 SE 4.0 SE 0.0 7.7 0.3
00:25 17.3 14.0 85.2 1022.6 2.4 SE 4.1 SE 0.0 7.8 0.6
00:30 17.4 13.9 85.8 1022.7 2.6 SE 4.2 SE 0.0 7.9 0.7
00:35 17.4 13.9 85.1 1022.6 3.2 SE 6.0 SSE 0.0 7.9 0.6
00:40 17.6 13.9 85.3 1022.6 2.2 ESE 4.1 ESE 0.0 7.9 0.7
00:45 17.6 13.9 85.0 1022.6 2.6 ESE 4.9 E 0.0 8.0 0.4
00:50 17.6 14.0 84.7 1022.6 4.3 E 6.2 E 0.0 7.9 0.4
00:55 17.5 14.1 84.8 1022.6 2.8 ESE 4.6 ESE 0.0 8.0 0.5
01:00 17.7 14.1 83.8 1022.6 3.2 ESE 5.5 ESE 0.0 8.0 0.7
01:05 17.8 14.1 83.8 1022.5 2.7 ESE 4.0 E 0.0 8.0 0.7
01:10 17.7 14.1 83.6 1022.6 2.8 SE 4.4 SSE 0.0 8.1 0.3
01:15 17.6 14.4 84.3 1022.6 2.6 ESE 4.4 SSE 0.0 8.1 0.3
01:20 17.5 14.5 84.9 1022.5 3.5 E 5.8 ESE 0.0 8.2 0.2
01:25 17.5 14.3 84.8 1022.5 2.8 SE 5.5 ESE 0.0 8.1 0.3
01:30 17.6 14.1 84.2 1022.5 1.9 SE 2.7 SE 0.0 8.2 0.1
01:35 17.5 14.0 84.6 1022.5 2.8 ESE 5.7 ESE 0.0 8.3 0.3
01:40 17.5 13.9 85.0 1022.5 3.4 ESE 5.1 SE 0.0 8.3 0.4
01:45 17.5 13.8 84.8 1022.5 3.4 ESE 5.5 ESE 0.0 8.4 0.3
01:50 17.5 13.8 85.1 1022.5 3.1 ESE 5.1 SE 0.0 8.4 0.2
01:55 17.4 13.8 85.2 1022.5 3.7 ESE 6.0 E 0.0 8.4 0.5
02:00 17.4 13.8 85.4 1022.5 2.7 ESE 5.5 ESE 0.0 8.4 0.4
02:05 17.3 13.8 85.7 1022.5 2.2 SSE 3.6 SSE 0.0 8.5 0.3
02:10 17.0 14.1 85.5 1022.5 3.5 SSE 5.8 SSE 0.0 8.5 0.0
02:15 16.8 14.2 86.5 1022.5 1.5 ESE 3.2 ESE 0.0 8.6 0.2
02:20 16.7 14.0 87.6 1022.5 1.4 SE 2.4 SE 0.0 8.5 0.2
02:25 16.7 13.8 88.0 1022.5 2.0 ESE 4.7 ESE 0.0 8.6 0.3
02:30 16.8 13.6 87.9 1022.5 2.8 ESE 5.0 ESE 0.0 8.7 0.4
02:35 16.8 13.5 87.9 1022.5 2.6 ESE 4.3 ESE 0.0 8.7 0.4
02:40 16.8 13.4 87.2 1022.5 1.2 SE 3.1 SSE 0.0 8.8 0.4
02:45 16.7 13.4 88.0 1022.5 1.4 E 2.5 ESE 0.0 8.8 0.2
02:50 16.6 13.3 88.3 1022.4 1.1 SE 2.8 ESE 0.0 8.9 0.3
02:55 16.5 13.2 88.6 1022.4 0.9 SE 2.3 ESE 0.0 8.9 0.4
03:00 16.5 13.1 88.9 1022.4 1.9 E 3.1 ESE 0.0 9.0 0.6
03:05 16.5 13.1 89.1 1022.4 2.7 E 4.2 ESE 0.0 8.2 0.6
03:10 16.5 13.1 88.8 1022.4 2.3 E 3.8 ESE 0.0 9.1 0.6
03:15 16.4 13.1 88.8 1022.4 1.3 ESE 3.0 ESE 0.0 9.1 0.2
03:20 16.4 13.1 89.5 1022.4 2.6 E 3.9 ESE 0.0 9.2 0.4
03:25 16.4 13.1 89.3 1022.4 2.3 ESE 3.5 SE 0.0 9.2 0.2
03:30 16.3 12.9 89.4 1022.3 3.0 ESE 4.6 ESE 0.0 9.2 0.4
03:35 16.4 12.9 89.1 1022.3 2.2 SE 4.5 E 0.0 9.0 0.3
03:40 16.2 13.0 88.8 1022.3 2.3 SSE 3.5 SSE 0.0 9.3 0.0
03:45 16.0 13.2 89.8 1022.2 1.2 ESE 2.5 SSE 0.0 9.4 0.1
03:50 16.0 13.1 90.7 1022.2 1.3 SE 3.0 SSE 0.0 8.6 0.2
03:55 16.1 12.9 90.5 1022.1 1.6 SE 2.4 E 0.0 9.5 0.2
04:00 16.0 12.7 90.6 1022.1 2.7 ESE 4.3 E 0.0 9.5 0.2
04:05 15.9 12.6 90.9 1022.1 2.4 ESE 4.0 E 0.0 9.6 0.3
04:10 15.9 12.4 90.9 1022.1 2.2 ESE 3.8 ESE 0.0 9.6 0.2
04:15 16.0 12.3 90.6 1022.1 2.5 ESE 4.6 ESE 0.0 9.6 0.2
04:20 16.0 12.2 90.2 1022.1 2.0 SE 3.2 ESE 0.0 9.7 0.2
04:25 15.9 12.2 90.0 1022.0 2.8 ESE 5.2 ESE 0.0 9.7 0.0
04:30 16.0 12.2 90.0 1022.0 3.0 ESE 4.7 ESE 0.0 9.8 0.2
04:35 15.9 12.2 89.9 1022.0 2.0 SE 4.6 ESE 0.0 9.6 0.1
04:40 15.8 12.3 89.9 1022.0 2.2 SE 3.9 SSE 0.0 9.9 0.0
04:45 15.6 12.6 90.4 1022.0 2.3 SE 4.5 SSE 0.0 9.9 0.0
04:50 15.7 12.6 91.0 1022.0 1.8 ESE 2.7 ESE 0.0 9.9 0.1
04:55 15.7 12.6 91.4 1022.1 1.5 SE 2.4 SE 0.0 10.0 0.0
05:00 15.6 12.5 91.3 1022.1 1.6 ESE 2.8 E 0.0 10.0 0.1
05:05 15.6 12.4 91.8 1022.1 2.1 SE 3.4 SSE 0.0 10.1 0.4
05:10 15.5 12.4 90.7 1022.1 2.0 SE 3.8 SE 0.0 10.1 0.6
05:15 15.3 12.5 91.3 1022.2 2.3 ESE 3.3 E 0.0 9.5 1.5
05:20 15.4 12.5 92.0 1022.2 1.9 SSE 3.1 SE 0.0 10.0 3.1
05:25 15.3 12.4 91.4 1022.3 1.2 SE 2.3 SSE 0.0 9.8 4.9
05:30 15.3 12.4 92.3 1022.4 1.1 SE 2.0 ESE 0.0 10.2 7.9
05:35 15.2 12.3 92.6 1022.4 1.1 SE 2.2 SE 0.0 10.3 11.2
05:40 15.3 12.2 93.0 1022.4 1.5 ESE 2.5 ESE 0.0 10.3 14.4
05:45 15.4 12.3 92.7 1022.5 1.3 SSE 3.0 SE 0.0 10.4 17.2
05:50 15.4 12.5 92.6 1022.5 1.3 ESE 1.9 ESE 0.0 10.4 20.6
05:55 15.4 12.5 92.7 1022.5 1.6 SE 2.5 SSE 0.0 10.0 24.2
06:00 15.5 12.9 92.0 1022.6 2.2 SE 3.3 SE 0.0 10.5 27.0
06:05 15.4 13.2 91.9 1022.6 1.3 ESE 2.4 SSE 0.0 10.5 30.0
06:10 15.6 13.3 92.4 1022.6 1.4 SSE 3.7 SSE 0.0 10.5 33.0
06:15 15.6 13.5 92.0 1022.6 2.0 SE 3.8 SSE 0.0 10.5 35.9
06:20 15.8 13.6 92.1 1022.7 1.6 SSE 2.7 SSE 0.0 10.6 38.4
06:25 15.8 13.8 91.8 1022.7 1.3 SE 2.6 SE 0.0 10.6 41.0
06:30 16.1 14.0 91.8 1022.8 0.9 ESE 2.2 SSE 0.0 10.6 44.0
06:35 16.2 14.3 90.3 1022.8 1.6 W 3.0 NW 0.0 10.6 120.9
06:40 16.5 14.6 89.5 1022.8 1.5 NW 3.1 NNW 0.0 10.6 177.3
06:45 17.0 14.8 87.7 1022.8 1.4 SSE 3.6 SSE 0.0 10.6 189.7
06:50 17.6 15.1 85.2 1022.8 1.2 SSE 2.3 SE 0.0 10.1 203.7
06:55 18.4 15.4 81.6 1022.8 1.6 S 2.3 SSW 0.0 10.5 219.4
07:00 19.6 15.9 75.9 1022.8 0.9 SSE 2.1 SSW 0.0 10.1 235.6
07:05 20.6 16.2 72.3 1022.8 0.5 SSW 1.6 SSW 0.0 10.5 251.5
07:10 21.7 16.5 68.1 1022.8 0.5 ESE 1.4 ENE 0.0 10.4 267.6
07:15 22.6 17.3 64.8 1022.8 1.1 E 2.7 W 0.0 10.4 283.3
07:20 22.3 18.3 66.6 1022.8 1.3 NW 3.3 NW 0.0 10.3 298.4
07:25 21.7 19.2 68.0 1022.8 1.6 N 4.5 NW 0.0 10.2 314.2
07:30 20.9 19.5 72.2 1022.8 2.7 NW 5.7 NNW 0.0 10.1 329.7
07:35 20.7 20.0 73.0 1022.8 2.9 NW 4.5 WNW 0.0 10.0 345.9
07:40 20.7 20.4 73.6 1022.8 2.5 WNW 4.6 NW 0.0 9.9 360.9
07:45 21.1 20.8 72.5 1022.8 2.5 NNW 5.1 NNW 0.0 9.9 376.9
07:50 21.3 21.3 71.0 1022.8 1.7 NNE 3.7 NNE 0.0 9.8 390.1
07:55 22.0 21.9 67.8 1022.8 1.8 N 4.2 NNW 0.0 9.4 405.0
08:00 22.5 22.5 67.0 1022.7 2.0 WSW 4.2 SW 0.0 9.6 422.7
08:05 22.6 23.0 66.7 1022.7 2.8 NW 5.4 WNW 0.0 9.5 438.1
08:10 22.5 23.7 66.8 1022.6 2.5 NW 5.8 NNW 0.0 9.4 455.2
08:15 22.7 24.3 65.8 1022.7 3.0 NNW 5.6 NNW 0.0 9.3 469.7
08:20 22.7 24.8 64.7 1022.7 4.0 NNW 7.1 NNW 0.0 9.3 484.4
08:25 22.7 25.4 64.9 1022.7 3.7 NW 7.0 NW 0.0 9.1 501.3
08:30 23.0 26.0 63.4 1022.7 3.5 NW 6.2 NW 0.0 9.0 515.9
08:35 23.5 26.8 62.1 1022.7 4.2 NW 7.3 NNW 0.0 8.9 529.7
08:40 23.9 27.5 61.1 1022.7 5.4 NNW 9.6 N 0.0 8.9 544.7
08:45 23.9 27.9 60.7 1022.8 4.0 NNW 8.2 N 0.0 8.7 557.1
08:50 24.1 28.5 60.1 1022.8 5.9 NNW 9.4 NNW 0.0 8.6 570.4
08:55 24.4 28.8 59.2 1022.9 6.7 NNW 8.7 NNW 0.0 8.5 584.9
09:00 24.7 29.4 58.4 1022.9 4.5 NNW 8.4 NNW 0.0 8.3 597.0
09:05 24.9 30.0 56.6 1022.9 4.9 N 7.3 NNW 0.0 8.4 609.8
09:10 25.3 30.3 55.9 1022.9 4.7 NNW 7.9 NNW 0.0 8.3 621.5
09:15 25.6 30.5 54.5 1022.8 5.6 NW 12.2 NNW 0.0 8.2 633.7
09:20 26.0 30.5 51.7 1022.8 5.7 NNW 11.5 NNW 0.0 8.1 646.8
09:25 26.1 30.6 49.9 1022.8 2.7 N 6.5 NNE 0.0 8.0 657.8
09:30 26.6 31.2 49.4 1022.8 4.7 NNW 7.9 NNW 0.0 7.9 668.5
09:35 26.8 31.3 49.5 1022.9 4.7 NW 9.4 N 0.0 7.8 680.7
09:40 27.0 31.6 48.5 1022.9 4.5 NW 9.0 NW 0.0 7.7 692.0
09:45 27.4 32.5 47.3 1022.8 3.2 WNW 7.7 NE 0.0 7.6 701.2
Màxima 27.4 32.5 93.0 1022.9 6.7 NNW 12.2 NNW 0.0 10.6 701.2
Mínima 15.2 12.2 47.3 1022.0 7.6
Total 0.0